Time;durP1;ratioP1;P1;durP2;ratioP2;P2;SDS_P1;SDS_P2;PMS_P1;PMS_P2;Temp;Humidity;BMP_temperature;BMP_pressure;BME280_temperature;BME280_humidity;BME280_pressure;Samples;Min_cycle;Max_cycle;Signal;HPM_P1;HPM_P2
2022/03/17 00:00:16;;;;;;;;;7.00;2.75;;;;;;;;5054757;27;51242;-47
2022/03/17 00:03:01;;;;;;;;;16.00;7.50;;;;;;;;5057643;27;51005;-47
2022/03/17 00:05:47;;;;;;;;;13.75;7.50;;;;;;;;5049462;28;51232;-47
2022/03/17 00:08:32;;;;;;;;;11.50;6.25;;;;;;;;5055855;28;51172;-50
2022/03/17 00:11:18;;;;;;;;;11.75;6.50;;;;;;;;5056777;28;51311;-52
2022/03/17 00:14:08;;;;;;;;;12.00;8.00;;;;;;;;5054104;28;51584;-51
2022/03/17 00:16:53;;;;;;;;;9.25;5.75;;;;;;;;5056469;28;51950;-49
2022/03/17 00:19:39;;;;;;;;;16.00;6.25;;;;;;;;5051011;28;51218;-47
2022/03/17 00:22:24;;;;;;;;;12.75;7.75;;;;;;;;5048280;28;51097;-49
2022/03/17 00:25:09;;;;;;;;;10.25;4.50;;;;;;;;5053746;27;51460;-47
2022/03/17 00:27:56;;;;;;;;;18.00;8.50;;;;;;;;5079859;27;51206;-47
2022/03/17 00:30:40;;;;;;;;;16.75;9.75;;;;;;;;5053707;28;51586;-46
2022/03/17 00:33:27;;;;;;;;;11.75;9.00;;;;;;;;5058023;28;52071;-46
2022/03/17 00:36:11;;;;;;;;;17.50;6.75;;;;;;;;5058667;28;51185;-47
2022/03/17 00:38:56;;;;;;;;;11.00;7.50;;;;;;;;5047759;28;51131;-46
2022/03/17 00:41:40;;;;;;;;;19.50;8.50;;;;;;;;5052584;28;51554;-49
2022/03/17 00:44:24;;;;;;;;;12.75;8.00;;;;;;;;5051373;28;51528;-47
2022/03/17 00:47:09;;;;;;;;;10.50;6.50;;;;;;;;5058602;28;51350;-50
2022/03/17 00:49:53;;;;;;;;;12.50;7.50;;;;;;;;5049788;28;51172;-48
2022/03/17 00:52:38;;;;;;;;;16.00;8.00;;;;;;;;5054864;28;51083;-51
2022/03/17 00:55:28;;;;;;;;;14.00;6.75;;;;;;;;5046883;28;51459;-47
2022/03/17 00:58:37;;;;;;;;;10.00;5.00;;;;;;;;5055694;28;51148;-47
2022/03/17 01:01:40;;;;;;;;;7.25;7.00;;;;;;;;5043377;28;51494;-47
2022/03/17 01:04:26;;;;;;;;;12.50;6.25;;;;;;;;5063846;28;51205;-47
2022/03/17 01:07:14;;;;;;;;;13.75;8.00;;;;;;;;5047922;28;51429;-49
2022/03/17 01:10:11;;;;;;;;;18.00;7.25;;;;;;;;5056476;28;51247;-48
2022/03/17 01:12:58;;;;;;;;;10.75;6.50;;;;;;;;5057099;28;51461;-47
2022/03/17 01:15:45;;;;;;;;;14.25;6.00;;;;;;;;5057699;28;51509;-47
2022/03/17 01:18:34;;;;;;;;;11.00;7.25;;;;;;;;5057908;28;51043;-49
2022/03/17 01:21:20;;;;;;;;;15.00;6.75;;;;;;;;5050767;28;51186;-48
2022/03/17 01:24:06;;;;;;;;;14.75;6.50;;;;;;;;5041651;28;51413;-49
2022/03/17 01:26:53;;;;;;;;;15.25;7.00;;;;;;;;5056482;28;51468;-48
2022/03/17 01:29:43;;;;;;;;;8.75;5.50;;;;;;;;5058349;28;51080;-49
2022/03/17 01:32:38;;;;;;;;;7.75;5.75;;;;;;;;5063257;28;51464;-49
2022/03/17 01:35:24;;;;;;;;;11.00;5.00;;;;;;;;5052332;28;51062;-46
2022/03/17 01:38:16;;;;;;;;;7.50;5.50;;;;;;;;5052325;28;51505;-47
2022/03/17 01:41:01;;;;;;;;;11.50;6.25;;;;;;;;5057364;28;51142;-46
2022/03/17 01:43:46;;;;;;;;;12.50;5.50;;;;;;;;5058530;28;51100;-47
2022/03/17 01:47:26;;;;;;;;;5.75;0.75;;;;;;;;5061485;28;51023;-46
2022/03/17 01:49:39;;;;;;;;;10.00;7.00;;;;;;;;5065114;28;51112;-47
2022/03/17 01:52:47;;;;;;;;;11.50;7.00;;;;;;;;5058076;28;51043;-47
2022/03/17 01:55:32;;;;;;;;;10.50;6.00;;;;;;;;5056384;28;51466;-47
2022/03/17 01:58:17;;;;;;;;;11.50;5.50;;;;;;;;5051926;28;51585;-49
2022/03/17 02:01:03;;;;;;;;;15.25;8.00;;;;;;;;5048145;28;51330;-49
2022/03/17 02:03:53;;;;;;;;;9.50;7.50;;;;;;;;5050371;28;51480;-50
2022/03/17 02:06:38;;;;;;;;;15.50;8.00;;;;;;;;5056705;28;51114;-46
2022/03/17 02:09:29;;;;;;;;;21.50;9.25;;;;;;;;5059267;28;51228;-48
2022/03/17 02:15:17;;;;;;;;;15.00;8.50;;;;;;;;5061790;27;51115;-46
2022/03/17 02:18:06;;;;;;;;;13.25;6.00;;;;;;;;5065712;27;51168;-47
2022/03/17 02:21:04;;;;;;;;;10.50;7.00;;;;;;;;5061169;28;51029;-47
2022/03/17 02:26:52;;;;;;;;;14.25;5.75;;;;;;;;5060195;28;51187;-49
2022/03/17 02:29:40;;;;;;;;;13.25;6.50;;;;;;;;5062574;27;51476;-47
2022/03/17 02:32:24;;;;;;;;;7.75;6.25;;;;;;;;5059651;28;51164;-47
2022/03/17 02:35:10;;;;;;;;;17.75;6.50;;;;;;;;5058803;28;51130;-47
2022/03/17 02:37:55;;;;;;;;;11.25;7.75;;;;;;;;5056806;28;51054;-47
2022/03/17 02:40:40;;;;;;;;;18.75;7.00;;;;;;;;5047581;28;51482;-46
2022/03/17 02:43:37;;;;;;;;;9.50;5.00;;;;;;;;5057196;28;51091;-47
2022/03/17 02:46:21;;;;;;;;;8.75;6.25;;;;;;;;5052118;28;51166;-47
2022/03/17 02:49:21;;;;;;;;;13.00;7.00;;;;;;;;5059930;28;51348;-47
2022/03/17 02:52:15;;;;;;;;;13.00;6.00;;;;;;;;5059534;27;51157;-47
2022/03/17 02:55:00;;;;;;;;;13.75;6.50;;;;;;;;5056499;28;51049;-46
2022/03/17 02:57:45;;;;;;;;;10.25;6.00;;;;;;;;5058363;28;51099;-49
2022/03/17 03:00:29;;;;;;;;;10.50;6.00;;;;;;;;5060746;28;51141;-49
2022/03/17 03:03:17;;;;;;;;;11.25;6.50;;;;;;;;5053825;27;51431;-48
2022/03/17 03:06:03;;;;;;;;;10.25;5.75;;;;;;;;5072619;27;51080;-47
2022/03/17 03:08:47;;;;;;;;;8.25;7.00;;;;;;;;5053527;28;51099;-48
2022/03/17 03:11:52;;;;;;;;;14.25;8.00;;;;;;;;5059453;27;51143;-47
2022/03/17 03:14:40;;;;;;;;;17.50;8.75;;;;;;;;5073284;27;51197;-48
2022/03/17 03:17:34;;;;;;;;;15.50;9.00;;;;;;;;5054574;28;51050;-47
2022/03/17 03:20:29;;;;;;;;;9.75;8.25;;;;;;;;5058581;28;51396;-47
2022/03/17 03:23:21;;;;;;;;;10.50;8.00;;;;;;;;5054468;27;51085;-47
2022/03/17 03:26:05;;;;;;;;;17.50;7.50;;;;;;;;5070086;27;51082;-50
2022/03/17 03:28:54;;;;;;;;;12.00;7.75;;;;;;;;5058176;28;51076;-45
2022/03/17 03:31:39;;;;;;;;;16.75;8.75;;;;;;;;5055166;28;51081;-47
2022/03/17 03:34:25;;;;;;;;;13.75;8.25;;;;;;;;5060420;28;51162;-47
2022/03/17 03:37:39;;;;;;;;;16.50;9.75;;;;;;;;5051246;27;51202;-50
2022/03/17 03:40:29;;;;;;;;;13.75;8.50;;;;;;;;5046854;28;51554;-46
2022/03/17 03:43:17;;;;;;;;;12.75;7.75;;;;;;;;5051010;28;51109;-48
2022/03/17 03:46:08;;;;;;;;;16.25;7.75;;;;;;;;5058750;27;51094;-48
2022/03/17 03:48:56;;;;;;;;;14.00;9.00;;;;;;;;5060023;28;51064;-46
2022/03/17 03:51:42;;;;;;;;;15.25;11.00;;;;;;;;5059046;28;51039;-49
2022/03/17 03:54:37;;;;;;;;;13.00;9.50;;;;;;;;5053741;28;51114;-47
2022/03/17 03:57:27;;;;;;;;;14.75;6.25;;;;;;;;5049769;28;50989;-47
2022/03/17 04:03:20;;;;;;;;;11.25;7.00;;;;;;;;5054661;28;51118;-48
2022/03/17 04:06:05;;;;;;;;;19.00;8.00;;;;;;;;5057417;28;51300;-49
2022/03/17 04:08:50;;;;;;;;;15.50;9.00;;;;;;;;5070136;27;51117;-48
2022/03/17 04:11:41;;;;;;;;;13.25;7.75;;;;;;;;5052210;28;51350;-46
2022/03/17 04:14:32;;;;;;;;;10.75;7.75;;;;;;;;5058840;27;51212;-49
2022/03/17 04:17:18;;;;;;;;;18.25;9.50;;;;;;;;5068066;27;51208;-47
2022/03/17 04:20:08;;;;;;;;;17.75;8.00;;;;;;;;5056992;28;51055;-48
2022/03/17 04:22:56;;;;;;;;;16.50;8.00;;;;;;;;5057874;28;51215;-47
2022/03/17 04:25:40;;;;;;;;;12.25;8.25;;;;;;;;5055929;28;51169;-47
2022/03/17 04:28:26;;;;;;;;;14.50;7.50;;;;;;;;5058259;28;51198;-46
2022/03/17 04:31:11;;;;;;;;;10.50;6.00;;;;;;;;5054976;27;51911;-48
2022/03/17 04:33:57;;;;;;;;;10.50;8.75;;;;;;;;5047558;28;51147;-48
2022/03/17 04:36:43;;;;;;;;;3.50;3.50;;;;;;;;5057504;27;51485;-46
2022/03/17 04:39:48;;;;;;;;;14.50;6.75;;;;;;;;5055426;28;51134;-47
2022/03/17 04:42:33;;;;;;;;;13.75;9.00;;;;;;;;5058362;27;51170;-47
2022/03/17 04:45:19;;;;;;;;;11.75;8.00;;;;;;;;5055782;28;51219;-47
2022/03/17 04:48:04;;;;;;;;;12.00;8.75;;;;;;;;5058466;28;51155;-50
2022/03/17 04:50:58;;;;;;;;;9.00;7.25;;;;;;;;5055338;28;51158;-47
2022/03/17 04:53:42;;;;;;;;;19.50;8.50;;;;;;;;5046776;28;51168;-48
2022/03/17 04:56:28;;;;;;;;;12.50;6.75;;;;;;;;5061151;28;51060;-47
2022/03/17 04:59:14;;;;;;;;;14.00;8.25;;;;;;;;5054354;28;51062;-48
2022/03/17 05:02:00;;;;;;;;;14.00;8.50;;;;;;;;5049237;27;51513;-48
2022/03/17 05:04:44;;;;;;;;;14.25;7.00;;;;;;;;5044600;28;51146;-49
2022/03/17 05:07:35;;;;;;;;;12.50;7.25;;;;;;;;5042534;28;52021;-47
2022/03/17 05:10:48;;;;;;;;;12.25;6.75;;;;;;;;5055422;28;51442;-47
2022/03/17 05:13:33;;;;;;;;;9.50;6.50;;;;;;;;5050702;28;51192;-48
2022/03/17 05:18:00;;;;;;;;;13.25;7.25;;;;;;;;4156901;31;6855994;-56
2022/03/17 05:20:46;;;;;;;;;12.75;7.50;;;;;;;;5099609;27;51122;-53
2022/03/17 05:23:31;;;;;;;;;15.00;7.50;;;;;;;;5110586;27;51432;-50
2022/03/17 05:26:20;;;;;;;;;13.75;8.00;;;;;;;;5106605;27;51045;-54
2022/03/17 05:29:06;;;;;;;;;13.75;9.75;;;;;;;;5116068;27;50996;-54
2022/03/17 05:31:51;;;;;;;;;10.50;5.25;;;;;;;;5104579;27;51223;-49
2022/03/17 05:34:36;;;;;;;;;10.25;9.25;;;;;;;;5113782;27;51866;-53
2022/03/17 05:37:27;;;;;;;;;17.75;7.75;;;;;;;;5097118;27;51169;-59
2022/03/17 05:40:15;;;;;;;;;15.50;8.00;;;;;;;;5097803;27;51118;-53
2022/03/17 05:43:02;;;;;;;;;19.00;7.75;;;;;;;;5110043;27;51136;-56
2022/03/17 05:45:48;;;;;;;;;12.50;8.25;;;;;;;;5097318;27;51047;-55
2022/03/17 05:48:34;;;;;;;;;10.25;7.75;;;;;;;;5117489;27;51381;-55
2022/03/17 05:51:24;;;;;;;;;18.00;9.00;;;;;;;;5108419;27;51344;-52
2022/03/17 05:54:13;;;;;;;;;15.75;10.00;;;;;;;;5112708;27;51192;-55
2022/03/17 05:57:05;;;;;;;;;18.00;11.25;;;;;;;;5097481;27;51127;-51
2022/03/17 06:00:12;;;;;;;;;11.50;8.75;;;;;;;;5113963;27;50983;-55
2022/03/17 06:03:09;;;;;;;;;16.25;9.00;;;;;;;;5112734;27;51179;-53
2022/03/17 06:05:53;;;;;;;;;18.50;11.00;;;;;;;;5110020;27;51154;-52
2022/03/17 06:08:39;;;;;;;;;12.00;8.50;;;;;;;;5111750;27;51027;-56
2022/03/17 06:11:25;;;;;;;;;23.00;11.50;;;;;;;;5111866;27;51562;-52
2022/03/17 06:14:15;;;;;;;;;23.00;10.25;;;;;;;;5102853;27;51169;-48
2022/03/17 06:17:00;;;;;;;;;16.50;12.00;;;;;;;;5095892;27;51315;-53
2022/03/17 06:19:45;;;;;;;;;19.25;10.75;;;;;;;;5097573;27;51155;-53
2022/03/17 06:22:31;;;;;;;;;18.00;8.00;;;;;;;;5097290;27;51097;-53
2022/03/17 06:25:16;;;;;;;;;20.00;9.00;;;;;;;;5099366;27;51521;-53
2022/03/17 06:28:01;;;;;;;;;18.00;11.50;;;;;;;;5094984;27;51168;-52
2022/03/17 06:30:45;;;;;;;;;13.50;9.75;;;;;;;;5087793;27;51167;-54
2022/03/17 06:33:30;;;;;;;;;16.75;8.00;;;;;;;;5085310;27;51146;-54
2022/03/17 06:36:15;;;;;;;;;15.50;9.00;;;;;;;;5082003;27;51046;-53
2022/03/17 06:38:59;;;;;;;;;21.00;11.00;;;;;;;;5085948;27;51080;-57
2022/03/17 06:41:44;;;;;;;;;16.50;10.75;;;;;;;;5077042;27;51095;-54
2022/03/17 06:44:28;;;;;;;;;11.25;8.75;;;;;;;;5081769;27;51233;-54
2022/03/17 06:47:19;;;;;;;;;16.75;11.50;;;;;;;;5082787;27;51001;-55
2022/03/17 06:50:05;;;;;;;;;15.00;10.00;;;;;;;;5083813;27;51507;-54
2022/03/17 06:52:52;;;;;;;;;17.75;7.25;;;;;;;;5082464;27;51439;-56
2022/03/17 06:55:40;;;;;;;;;13.50;10.25;;;;;;;;5081387;27;51262;-53
2022/03/17 06:58:29;;;;;;;;;13.50;10.25;;;;;;;;5082466;27;51119;-52
2022/03/17 07:01:15;;;;;;;;;14.25;5.75;;;;;;;;5098943;27;51159;-55
2022/03/17 07:04:01;;;;;;;;;12.50;8.50;;;;;;;;5102357;27;51186;-57
2022/03/17 07:06:45;;;;;;;;;20.00;9.25;;;;;;;;5098682;27;50989;-53
2022/03/17 07:09:30;;;;;;;;;16.50;8.50;;;;;;;;5081609;27;51232;-59
2022/03/17 07:12:22;;;;;;;;;18.00;10.75;;;;;;;;5102357;27;51135;-53
2022/03/17 07:15:09;;;;;;;;;11.00;8.25;;;;;;;;5102060;27;51543;-53
2022/03/17 07:17:58;;;;;;;;;16.00;7.75;;;;;;;;5081311;27;51155;-54
2022/03/17 07:20:57;;;;;;;;;16.25;8.25;;;;;;;;5081908;27;51596;-55
2022/03/17 07:23:43;;;;;;;;;14.75;9.75;;;;;;;;5100650;27;51142;-56
2022/03/17 07:26:28;;;;;;;;;11.00;7.00;;;;;;;;5081490;27;51089;-53
2022/03/17 07:29:13;;;;;;;;;17.50;11.25;;;;;;;;5101149;27;51075;-54
2022/03/17 07:32:02;;;;;;;;;15.50;9.75;;;;;;;;5099981;27;51076;-54
2022/03/17 07:34:47;;;;;;;;;13.50;10.00;;;;;;;;5089115;27;51380;-55
2022/03/17 07:37:53;;;;;;;;;8.50;6.75;;;;;;;;5101123;27;51052;-56
2022/03/17 07:40:49;;;;;;;;;21.50;11.50;;;;;;;;5078985;27;52127;-53
2022/03/17 07:43:38;;;;;;;;;17.75;10.75;;;;;;;;5077733;27;51556;-58
2022/03/17 07:46:24;;;;;;;;;20.50;10.00;;;;;;;;5081134;27;51118;-54
2022/03/17 07:49:09;;;;;;;;;18.00;10.75;;;;;;;;5080652;27;51142;-55
2022/03/17 07:51:57;;;;;;;;;19.25;11.00;;;;;;;;5080312;27;51543;-55
2022/03/17 07:54:45;;;;;;;;;11.25;8.25;;;;;;;;5078641;27;51104;-55
2022/03/17 07:57:32;;;;;;;;;15.00;9.50;;;;;;;;5081108;27;51088;-57
2022/03/17 08:00:32;;;;;;;;;18.50;12.25;;;;;;;;5095767;27;51143;-53
2022/03/17 08:03:17;;;;;;;;;14.50;10.50;;;;;;;;5100867;27;51198;-55
2022/03/17 08:06:02;;;;;;;;;19.00;12.50;;;;;;;;5099864;27;51411;-56
2022/03/17 08:08:48;;;;;;;;;18.25;13.00;;;;;;;;5081314;27;51108;-58
2022/03/17 08:11:32;;;;;;;;;21.50;13.75;;;;;;;;5079053;27;51130;-57
2022/03/17 08:14:18;;;;;;;;;17.00;10.75;;;;;;;;5081779;27;51183;-55
2022/03/17 08:17:04;;;;;;;;;9.50;9.50;;;;;;;;5079853;27;51546;-54
2022/03/17 08:19:49;;;;;;;;;14.25;9.50;;;;;;;;5079826;27;51075;-60
2022/03/17 08:22:34;;;;;;;;;18.25;9.00;;;;;;;;5083730;27;51108;-54
2022/03/17 08:25:20;;;;;;;;;12.25;8.75;;;;;;;;5099578;27;51089;-59
2022/03/17 08:28:08;;;;;;;;;13.25;8.25;;;;;;;;5092698;27;51465;-55
2022/03/17 08:30:52;;;;;;;;;12.00;7.75;;;;;;;;5085954;27;51413;-57
2022/03/17 08:33:39;;;;;;;;;15.25;9.25;;;;;;;;5097795;27;51170;-58
2022/03/17 08:36:56;;;;;;;;;8.50;6.25;;;;;;;;5083901;27;51132;-54
2022/03/17 08:39:52;;;;;;;;;12.25;7.75;;;;;;;;5080702;27;51159;-55
2022/03/17 08:42:42;;;;;;;;;13.25;8.25;;;;;;;;5098892;27;51140;-54
2022/03/17 08:51:34;;;;;;;;;11.25;7.75;;;;;;;;5099722;27;51106;-56
2022/03/17 08:54:20;;;;;;;;;17.75;8.00;;;;;;;;5080206;27;51184;-59
2022/03/17 08:57:07;;;;;;;;;17.25;9.00;;;;;;;;5080320;27;51430;-51
2022/03/17 08:59:53;;;;;;;;;16.00;7.25;;;;;;;;5094981;27;51480;-56
2022/03/17 09:02:39;;;;;;;;;16.50;8.75;;;;;;;;5081248;27;51151;-56
2022/03/17 09:05:33;;;;;;;;;13.50;8.00;;;;;;;;5095930;27;51179;-51
2022/03/17 09:08:29;;;;;;;;;13.50;10.50;;;;;;;;5098225;27;51588;-58
2022/03/17 09:11:22;;;;;;;;;16.75;11.75;;;;;;;;5088740;27;51121;-54
2022/03/17 09:14:09;;;;;;;;;9.75;7.25;;;;;;;;5079633;27;51363;-56
2022/03/17 09:16:55;;;;;;;;;11.75;8.00;;;;;;;;5079311;27;51156;-52
2022/03/17 09:19:39;;;;;;;;;18.00;11.25;;;;;;;;5081153;27;51123;-55
2022/03/17 09:22:25;;;;;;;;;14.25;11.25;;;;;;;;5098278;27;51430;-56
2022/03/17 09:25:11;;;;;;;;;13.00;7.50;;;;;;;;5080885;27;51416;-54
2022/03/17 09:27:56;;;;;;;;;16.00;11.25;;;;;;;;5079327;27;51256;-58
2022/03/17 09:30:43;;;;;;;;;13.50;8.25;;;;;;;;5084681;27;51179;-54
2022/03/17 09:33:33;;;;;;;;;14.50;9.00;;;;;;;;5090332;27;51348;-52
2022/03/17 09:36:58;;;;;;;;;15.25;10.25;;;;;;;;5079113;27;51157;-55
2022/03/17 09:39:46;;;;;;;;;10.75;8.25;;;;;;;;5081067;27;51281;-54
2022/03/17 09:42:31;;;;;;;;;14.50;9.25;;;;;;;;5079059;27;51372;-52
2022/03/17 09:45:17;;;;;;;;;19.50;13.50;;;;;;;;5094567;27;50967;-52
2022/03/17 09:48:01;;;;;;;;;23.00;7.25;;;;;;;;5091172;27;51441;-55
2022/03/17 09:50:59;;;;;;;;;12.25;8.75;;;;;;;;5099283;27;51440;-56
2022/03/17 09:53:44;;;;;;;;;18.75;11.25;;;;;;;;5094458;27;51117;-55
2022/03/17 09:56:30;;;;;;;;;15.50;11.00;;;;;;;;5094151;27;51080;-56
2022/03/17 09:59:35;;;;;;;;;15.25;8.25;;;;;;;;5099209;27;51378;-54
2022/03/17 10:02:21;;;;;;;;;17.75;8.50;;;;;;;;5098814;27;51042;-57
2022/03/17 10:05:11;;;;;;;;;15.00;9.00;;;;;;;;5103003;27;51447;-55
2022/03/17 10:07:59;;;;;;;;;10.00;7.75;;;;;;;;5086069;27;51165;-53
2022/03/17 10:10:53;;;;;;;;;13.50;8.00;;;;;;;;5082868;27;51172;-56
2022/03/17 10:13:45;;;;;;;;;13.50;8.00;;;;;;;;5092251;27;51058;-54
2022/03/17 10:16:30;;;;;;;;;13.50;8.75;;;;;;;;5102398;27;51456;-56
2022/03/17 10:19:19;;;;;;;;;18.00;9.25;;;;;;;;5102889;27;51138;-56
2022/03/17 10:22:07;;;;;;;;;17.50;9.00;;;;;;;;5101406;27;51148;-56
2022/03/17 10:24:52;;;;;;;;;14.75;8.00;;;;;;;;5101916;27;51407;-54
2022/03/17 10:27:42;;;;;;;;;19.25;11.50;;;;;;;;5103069;27;51283;-56
2022/03/17 10:30:36;;;;;;;;;18.25;11.75;;;;;;;;5102300;27;51433;-50
2022/03/17 10:33:30;;;;;;;;;9.75;8.25;;;;;;;;5101748;27;51162;-54
2022/03/17 10:36:21;;;;;;;;;13.50;7.00;;;;;;;;5081563;27;51108;-55
2022/03/17 10:39:26;;;;;;;;;13.75;8.75;;;;;;;;5081580;27;51511;-55
2022/03/17 10:42:18;;;;;;;;;11.25;7.50;;;;;;;;5101240;27;51580;-52
2022/03/17 10:45:10;;;;;;;;;16.50;10.50;;;;;;;;5102352;27;51125;-58
2022/03/17 10:48:10;;;;;;;;;15.50;9.25;;;;;;;;5096812;27;51244;-60
2022/03/17 10:51:08;;;;;;;;;17.00;8.25;;;;;;;;5081795;27;51482;-56
2022/03/17 10:54:01;;;;;;;;;14.75;9.25;;;;;;;;5081944;27;51167;-57
2022/03/17 10:57:05;;;;;;;;;14.00;9.25;;;;;;;;5096626;27;51505;-60
2022/03/17 10:59:53;;;;;;;;;16.25;10.25;;;;;;;;5102053;27;51116;-56
2022/03/17 11:02:40;;;;;;;;;16.50;9.50;;;;;;;;5100040;27;51067;-57
2022/03/17 11:05:30;;;;;;;;;14.00;9.00;;;;;;;;5081224;27;51416;-54
2022/03/17 11:08:27;;;;;;;;;14.00;9.25;;;;;;;;5081500;27;51150;-54
2022/03/17 11:11:11;;;;;;;;;9.50;7.00;;;;;;;;5081962;27;51209;-54
2022/03/17 11:14:16;;;;;;;;;19.25;7.00;;;;;;;;5081466;27;51199;-54
2022/03/17 11:17:03;;;;;;;;;10.50;10.00;;;;;;;;5100465;27;51330;-55
2022/03/17 11:19:54;;;;;;;;;14.25;9.00;;;;;;;;5102009;27;51148;-56
2022/03/17 11:22:40;;;;;;;;;14.00;6.25;;;;;;;;5093070;27;51466;-53
2022/03/17 11:25:34;;;;;;;;;12.25;8.25;;;;;;;;5085396;27;51074;-53
2022/03/17 11:28:32;;;;;;;;;18.50;9.75;;;;;;;;5101868;27;51193;-55
2022/03/17 11:31:27;;;;;;;;;13.75;8.00;;;;;;;;5101733;27;51348;-51
2022/03/17 11:34:12;;;;;;;;;15.00;8.50;;;;;;;;5101341;27;51071;-55
2022/03/17 11:37:15;;;;;;;;;12.00;8.00;;;;;;;;5101530;27;51071;-56
2022/03/17 11:40:10;;;;;;;;;14.75;8.50;;;;;;;;5101838;27;51092;-54
2022/03/17 11:43:05;;;;;;;;;15.25;7.75;;;;;;;;5100608;27;51518;-53
2022/03/17 11:46:08;;;;;;;;;12.00;8.00;;;;;;;;5081366;27;51131;-53
2022/03/17 11:48:56;;;;;;;;;17.50;10.75;;;;;;;;5094504;27;51148;-57
2022/03/17 11:51:51;;;;;;;;;19.75;14.50;;;;;;;;5101018;27;51318;-53
2022/03/17 11:54:36;;;;;;;;;17.75;13.75;;;;;;;;5101467;27;51131;-55
2022/03/17 11:57:21;;;;;;;;;15.00;10.75;;;;;;;;5080570;27;51495;-54
2022/03/17 12:00:12;;;;;;;;;11.25;9.00;;;;;;;;5093784;27;51785;-52
2022/03/17 12:03:05;;;;;;;;;16.00;10.25;;;;;;;;5100568;27;51201;-55
2022/03/17 12:06:09;;;;;;;;;16.25;11.75;;;;;;;;5101263;27;51228;-54
2022/03/17 12:09:23;;;;;;;;;13.75;8.00;;;;;;;;5100577;27;51662;-57
2022/03/17 12:12:22;;;;;;;;;13.75;10.00;;;;;;;;5100441;27;51107;-56
2022/03/17 12:15:17;;;;;;;;;9.00;7.50;;;;;;;;5100489;27;51489;-54
2022/03/17 12:18:34;;;;;;;;;29.75;22.25;;;;;;;;5100233;27;51134;-51
2022/03/17 12:21:49;;;;;;;;;16.50;13.00;;;;;;;;5100897;27;51181;-53
2022/03/17 12:24:47;;;;;;;;;27.50;22.50;;;;;;;;5036674;28;51136;-52
2022/03/17 12:27:33;;;;;;;;;15.75;10.25;;;;;;;;5036268;28;51501;-51
2022/03/17 12:30:21;;;;;;;;;13.25;7.50;;;;;;;;5036910;28;51262;-50
2022/03/17 12:33:11;;;;;;;;;12.00;10.50;;;;;;;;5037486;28;51038;-53
2022/03/17 12:36:09;;;;;;;;;15.50;11.50;;;;;;;;5036718;28;51587;-55
2022/03/17 12:38:54;;;;;;;;;20.50;12.75;;;;;;;;5036710;28;51149;-51
2022/03/17 12:41:41;;;;;;;;;26.25;17.50;;;;;;;;5073377;27;51419;-57
2022/03/17 12:44:26;;;;;;;;;35.25;27.00;;;;;;;;5099948;27;51011;-55
2022/03/17 12:47:11;;;;;;;;;13.00;8.25;;;;;;;;5100285;27;51029;-58
2022/03/17 12:49:56;;;;;;;;;12.50;6.75;;;;;;;;5098954;27;51035;-56
2022/03/17 12:52:43;;;;;;;;;15.25;11.00;;;;;;;;5098064;27;51915;-53
2022/03/17 12:55:29;;;;;;;;;14.00;9.00;;;;;;;;5086151;27;51391;-54
2022/03/17 12:58:16;;;;;;;;;11.00;8.00;;;;;;;;5099076;27;51128;-55
2022/03/17 13:01:01;;;;;;;;;13.50;7.75;;;;;;;;5099716;27;51822;-53
2022/03/17 13:03:48;;;;;;;;;19.75;9.50;;;;;;;;5096381;27;51165;-52
2022/03/17 13:09:41;;;;;;;;;14.25;8.75;;;;;;;;5099733;27;51153;-56
2022/03/17 13:15:30;;;;;;;;;15.25;10.00;;;;;;;;5099441;27;51239;-51
2022/03/17 13:18:21;;;;;;;;;13.50;9.50;;;;;;;;5078877;27;51163;-52
2022/03/17 13:21:06;;;;;;;;;15.00;7.50;;;;;;;;5078988;27;51156;-51
2022/03/17 13:23:53;;;;;;;;;14.25;6.75;;;;;;;;5096050;27;51044;-54
2022/03/17 13:26:43;;;;;;;;;15.25;7.75;;;;;;;;5099414;27;51777;-52
2022/03/17 13:29:34;;;;;;;;;15.00;10.00;;;;;;;;5079022;27;51152;-50
2022/03/17 13:32:26;;;;;;;;;13.00;9.00;;;;;;;;5078965;27;51526;-52
2022/03/17 13:35:13;;;;;;;;;16.25;8.75;;;;;;;;5087479;27;51098;-59
2022/03/17 13:38:21;;;;;;;;;12.75;10.00;;;;;;;;5100638;27;51057;-55
2022/03/17 13:41:23;;;;;;;;;15.50;8.00;;;;;;;;5098676;27;51116;-55
2022/03/17 13:44:12;;;;;;;;;11.00;6.75;;;;;;;;5082940;27;51388;-53
2022/03/17 13:47:21;;;;;;;;;11.75;7.50;;;;;;;;5084604;27;51085;-52
2022/03/17 13:50:41;;;;;;;;;12.50;8.00;;;;;;;;5040118;28;51142;-53
2022/03/17 13:53:30;;;;;;;;;13.25;8.50;;;;;;;;5082696;27;51200;-57
2022/03/17 13:56:14;;;;;;;;;11.75;8.50;;;;;;;;5103023;27;51159;-52
2022/03/17 13:58:58;;;;;;;;;13.50;8.00;;;;;;;;5103225;27;51086;-54
2022/03/17 14:02:04;;;;;;;;;11.00;6.00;;;;;;;;5103209;27;51067;-57
2022/03/17 14:04:52;;;;;;;;;16.75;8.50;;;;;;;;5103341;27;50993;-53
2022/03/17 14:07:50;;;;;;;;;14.75;9.00;;;;;;;;5103228;27;51125;-56
2022/03/17 14:10:42;;;;;;;;;17.00;7.50;;;;;;;;5082325;27;51482;-53
2022/03/17 14:13:26;;;;;;;;;8.50;4.75;;;;;;;;5099367;27;51413;-56
2022/03/17 14:16:12;;;;;;;;;14.50;7.25;;;;;;;;5103172;27;51160;-55
2022/03/17 14:19:01;;;;;;;;;11.25;5.50;;;;;;;;5090678;27;51051;-51
2022/03/17 14:24:50;;;;;;;;;12.25;6.75;;;;;;;;5092452;27;51507;-53
2022/03/17 14:27:44;;;;;;;;;11.50;10.00;;;;;;;;5102853;27;51041;-53
2022/03/17 14:30:28;;;;;;;;;15.00;8.50;;;;;;;;5102564;27;51194;-57
2022/03/17 14:33:25;;;;;;;;;9.25;4.50;;;;;;;;5102816;27;51206;-53
2022/03/17 14:36:12;;;;;;;;;10.75;6.50;;;;;;;;5102926;27;51085;-55
2022/03/17 14:38:57;;;;;;;;;17.75;9.50;;;;;;;;5091717;27;51226;-50
2022/03/17 14:41:42;;;;;;;;;11.50;7.50;;;;;;;;5086590;27;51073;-52
2022/03/17 14:44:32;;;;;;;;;11.75;8.50;;;;;;;;5081935;27;51101;-54
2022/03/17 14:47:20;;;;;;;;;10.00;8.25;;;;;;;;5101499;27;51151;-54
2022/03/17 14:50:05;;;;;;;;;15.00;7.00;;;;;;;;5084096;27;51294;-51
2022/03/17 14:52:53;;;;;;;;;12.00;8.75;;;;;;;;5082042;27;51131;-54
2022/03/17 14:56:09;;;;;;;;;14.00;7.00;;;;;;;;5082685;27;51291;-52
2022/03/17 14:59:18;;;;;;;;;19.25;7.25;;;;;;;;5099091;27;51669;-51
2022/03/17 15:02:04;;;;;;;;;11.25;7.50;;;;;;;;5086158;27;51169;-57
2022/03/17 15:05:00;;;;;;;;;12.50;7.50;;;;;;;;5096238;27;51083;-55
2022/03/17 15:10:54;;;;;;;;;8.50;4.25;;;;;;;;5086707;27;51172;-53
2022/03/17 15:13:42;;;;;;;;;13.00;7.50;;;;;;;;5082901;27;50978;-51
2022/03/17 15:16:27;;;;;;;;;13.50;8.50;;;;;;;;5090972;27;51618;-52
2022/03/17 15:19:39;;;;;;;;;15.00;8.25;;;;;;;;5081362;27;51122;-57
2022/03/17 15:22:26;;;;;;;;;8.00;6.25;;;;;;;;5089870;27;51395;-53
2022/03/17 15:25:20;;;;;;;;;14.50;7.50;;;;;;;;5081261;27;51131;-51
2022/03/17 15:31:12;;;;;;;;;15.25;8.75;;;;;;;;5100320;27;51141;-51
2022/03/17 15:33:59;;;;;;;;;11.50;5.50;;;;;;;;5102050;27;51103;-51
2022/03/17 15:36:47;;;;;;;;;9.75;8.50;;;;;;;;5098217;27;51313;-51
2022/03/17 15:39:39;;;;;;;;;10.75;6.00;;;;;;;;5101395;27;51098;-49
2022/03/17 15:42:32;;;;;;;;;11.75;7.00;;;;;;;;5098899;27;51450;-57
2022/03/17 15:45:28;;;;;;;;;9.75;6.50;;;;;;;;5082049;27;50979;-57
2022/03/17 15:48:15;;;;;;;;;15.75;9.50;;;;;;;;5080328;27;51060;-52
2022/03/17 15:50:59;;;;;;;;;10.75;6.50;;;;;;;;5084130;27;51102;-56
2022/03/17 15:53:46;;;;;;;;;12.25;7.00;;;;;;;;5086504;27;51337;-51
2022/03/17 15:56:31;;;;;;;;;4.25;1.25;;;;;;;;5091248;27;51290;-53
2022/03/17 15:59:28;;;;;;;;;16.25;6.00;;;;;;;;5098896;27;51164;-55
2022/03/17 16:02:18;;;;;;;;;9.00;7.25;;;;;;;;5091887;27;51520;-54
2022/03/17 16:05:04;;;;;;;;;13.75;8.00;;;;;;;;5082678;27;51483;-54
2022/03/17 16:07:52;;;;;;;;;16.75;8.75;;;;;;;;5092571;27;51303;-54
2022/03/17 16:17:27;;;;;;;;;10.50;8.00;;;;;;;;5032527;28;51565;-56
2022/03/17 16:20:13;;;;;;;;;11.50;5.75;;;;;;;;5034894;28;51152;-55
2022/03/17 16:23:01;;;;;;;;;18.75;8.50;;;;;;;;5074115;27;51119;-53
2022/03/17 16:25:47;;;;;;;;;19.75;8.75;;;;;;;;5080263;27;51037;-52
2022/03/17 16:28:33;;;;;;;;;10.50;7.50;;;;;;;;5099644;27;51145;-55
2022/03/17 16:31:18;;;;;;;;;17.50;8.50;;;;;;;;5099737;27;51139;-53
2022/03/17 16:34:08;;;;;;;;;10.75;6.25;;;;;;;;5079978;27;51520;-55
2022/03/17 16:36:53;;;;;;;;;16.75;12.50;;;;;;;;5085701;27;52228;-55
2022/03/17 16:39:42;;;;;;;;;18.00;7.75;;;;;;;;5097202;27;51464;-54
2022/03/17 16:42:27;;;;;;;;;11.25;6.50;;;;;;;;5099672;27;51019;-56
2022/03/17 16:45:14;;;;;;;;;18.00;7.25;;;;;;;;5099358;27;51508;-54
2022/03/17 16:47:59;;;;;;;;;14.50;8.25;;;;;;;;5100164;27;51518;-58
2022/03/17 16:50:43;;;;;;;;;14.25;9.00;;;;;;;;5100231;27;51437;-52
2022/03/17 16:53:31;;;;;;;;;16.25;8.75;;;;;;;;5100234;27;51103;-54
2022/03/17 16:56:25;;;;;;;;;15.50;7.50;;;;;;;;5099748;27;51055;-54
2022/03/17 16:59:16;;;;;;;;;11.50;7.25;;;;;;;;5099867;27;51442;-57
2022/03/17 17:02:02;;;;;;;;;12.25;8.50;;;;;;;;5100055;27;51129;-56
2022/03/17 17:04:47;;;;;;;;;11.50;8.00;;;;;;;;5099810;27;51411;-54
2022/03/17 17:07:32;;;;;;;;;13.25;9.00;;;;;;;;5078455;27;52053;-51
2022/03/17 17:10:19;;;;;;;;;15.75;7.25;;;;;;;;5077831;27;51354;-56
2022/03/17 17:13:04;;;;;;;;;13.00;9.00;;;;;;;;5078657;27;51057;-51
2022/03/17 17:15:49;;;;;;;;;15.50;7.75;;;;;;;;5094182;27;51095;-51
2022/03/17 17:18:42;;;;;;;;;14.00;10.00;;;;;;;;5077180;27;51316;-51